EDT,Max TemperatureF,Mean TemperatureF,Min TemperatureF,Max Dew PointF,MeanDew PointF,Min DewpointF,Max Humidity, Mean Humidity, Min Humidity, Max Sea Level PressureIn, Mean Sea Level PressureIn, Min Sea Level PressureIn, Max VisibilityMiles, Mean VisibilityMiles, Min VisibilityMiles, Max Wind SpeedMPH, Mean Wind SpeedMPH, Max Gust SpeedMPH,PrecipitationIn, CloudCover, Events, WindDirDegrees
2011-10-1,53,50,46,46,39,32,93,69,50,30.05,30.00,29.91,15,12,5,18,16,28,0.00,7,Rain,20
2011-10-2,51,48,44,48,45,41,100,94,87,30.01,29.97,29.95,15,8,2,15,12,23,0.00,8,Rain,10
2011-10-3,59,55,51,55,54,52,100,92,82,30.10,30.05,29.98,15,13,3,12,7,,0.00,7,Rain,25
2011-10-4,66,60,55,55,53,50,100,79,56,30.20,30.17,30.13,15,15,15,12,6,,0.00,3,,319
2011-10-5,62,56,50,54,47,37,87,67,39,30.33,30.28,30.22,15,15,15,10,6,,0.00,1,,8
2011-10-6,64,52,41,48,43,37,93,63,39,30.42,30.37,30.34,15,15,15,8,2,,0.00,0,,20
2011-10-7,73,60,46,55,51,43,100,64,40,30.45,30.41,30.38,15,15,15,6,4,,0.00,0,,195
2011-10-8,77,66,55,57,56,52,88,67,47,30.46,30.41,30.37,15,14,12,12,4,,0.00,1,,210
2011-10-9,78,73,66,61,59,57,73,61,51,30.44,30.37,30.32,15,15,15,12,9,,0.00,0,,213
2011-10-10,77,66,55,61,58,54,94,72,57,30.33,30.27,30.20,15,14,10,9,2,,0.00,4,,259
2011-10-11,71,61,51,64,60,52,100,88,73,30.20,30.14,30.08,12,9,7,12,4,,0.00,6,Fog,28
2011-10-12,66,62,55,61,59,55,100,92,78,30.04,29.98,29.87,12,8,3,14,6,,0.00,8,Rain,77
2011-10-13,69,64,60,61,60,57,88,82,68,29.74,29.64,29.51,15,15,15,12,9,,0.00,6,,112
2011-10-14,62,58,55,61,54,48,94,83,68,29.40,29.33,29.30,15,13,3,18,12,26,0.00,8,Rain,236
2011-10-15,51,50,50,43,41,39,76,68,62,29.63,29.48,29.39,15,15,12,23,15,34,0.00,7,Rain,245
2011-10-16,55,53,51,50,45,39,88,74,54,29.76,29.67,29.57,15,15,12,18,12,29,0.00,6,Rain,238
2011-10-17,57,52,48,43,38,36,62,54,44,29.68,29.64,29.62,15,15,15,23,15,34,0.00,4,,239
2011-10-18,60,53,46,46,42,37,76,63,45,29.86,29.81,29.76,15,15,15,12,8,,0.00,6,,227
2011-10-19,55,52,50,52,51,48,100,92,88,29.75,29.62,29.44,15,12,5,23,14,32,0.00,8,Rain,61
2011-10-20,53,50,46,54,46,43,100,85,72,29.41,29.30,29.19,15,13,6,17,12,23,0.00,8,Rain,205
2011-10-21,50,48,46,46,44,43,100,85,76,30.01,29.89,29.78,15,14,5,15,12,23,0.00,8,Rain,255
2011-10-22,50,48,46,41,39,37,81,68,62,30.10,30.08,30.07,15,15,15,14,9,,0.00,6,,273
2011-10-23,60,50,39,46,43,39,100,67,48,30.10,30.05,30.00,15,14,8,12,4,17,0.00,4,,196
2011-10-24,59,54,50,52,45,37,94,71,48,29.98,29.89,29.84,15,14,7,14,11,18,0.00,5,Rain,229
2011-10-25,55,48,41,48,43,37,100,82,62,30.16,30.11,30.04,15,13,8,12,6,,0.00,5,Rain,253
2011-10-26,48,46,44,48,47,43,100,99,93,29.85,29.81,29.78,10,4,2,14,7,21,0.00,8,Rain,48
2011-10-27,41,40,39,39,33,30,100,76,65,30.07,29.93,29.86,15,15,15,12,7,17,0.00,7,,13
2011-10-28,48,40,32,37,34,30,93,73,58,30.25,30.21,30.18,15,15,15,9,6,,0.00,4,,202
2011-10-29,44,40,35,37,35,32,93,82,71,30.14,30.13,30.12,15,15,15,12,5,,0.00,6,Rain,169
2011-10-30,50,40,30,39,34,30,100,71,54,30.26,30.24,30.21,15,14,8,12,6,,0.00,3,Fog,193
2011-10-31,53,47,41,45,39,36,87,70,51,30.22,30.17,30.13,15,13,10,12,5,,0.00,8,Rain,153